Chan Gurney Municipal Airport
KYKN : rendu visible

Aérodrome :











RETROUVEZ-NOUS SUR...

 
LOGIN :

S'inscrire | Disclaimer

   EN    FR    IT 

 









Légende :    VFR   VFR Marginal   IFR   IFR Intensif   IFR Très Intensif
Visi : 
Plafond : 
>= 8 km
>= 3000ft
5 à 8 km
1000 à 3000 ft
1500m à 5 km
500 à 1000 ft
800 à 1500m
200 à 500 ft
< 800m
< 200 ft
Symboles :   Orages  Brouillard  Fortes neiges  Fortes précipitations  Vent > 20 kt






- Altitude de l'aérodrome : 1306 ft


KYKN - Chan Gurney Municipal

DERNIER METAR :
  • 040256Z AUTO 00000KT 10SM CLR M06/M08 A3030 RMK AO2 SLP296 T10611078 51007 FZRANO

METARs EXPIRÉS :
  • 040156Z AUTO 35003KT 10SM CLR M05/M07 A3029 RMK AO2 SLP293 T10501072 FZRANO
  • 040138Z AUTO 34004KT 10SM SCT020 M04/M07 A3029 RMK AO2 FZRANO
  • 040056Z AUTO 33008KT 10SM OVC020 M03/M06 A3029 RMK AO2 SLP291 T10281061 FZRANO

TAF N/A



MET'MAP, la Météo Aéronautique d'un coup d'oeil ! - Copyright ORBIFLY Décembre 2007 - Disclaimer

ORBIFLY MET'MAP TEAM :

Programmation & Développement : Alexandra Zaïnal
Sur une idée originale de : Baudouin d'Aumeries
Assistance à la programmation : Marc-Olivier Méhu
Soutien technique & logistique : Manuel Goepfert

Contact : metmap@orbifly.com




SOURCES & CREDITS :

   NOAA       Earth
Advisory